MYAS weather

Sandy Point Airport
Sandy Point, Bahamas

Public forecast

Using degrees Celsius for public forecast. Weather courtesy of forecast.io.

METAR (pilot weather report)

Closest report is Lynden Pindling International Airport, 58.1 nm (107.6 km) S. Retrieved 2019/09/16 01:00 UTC (27 minutes ago):

MYNN 160100Z 22006KT 9999 FEW018 BKN200 29/25 A2996

TAF (pilot weather forecast)

Forecast is more than 12 hours old.

Closest forecast is Lynden Pindling International Airport, 58.1 nm (107.6 km) S. Retrieved 2019/09/15 00:45 UTC (1 day ago):

TAF MYNN 152230Z 1600/1624 22008KT 9999 FEW018CB BKN200 PROB30 TEMPO 1606/1610 8000 SHRA FEW015CB BKN016 BKN120 FM161800 26012KT 9000 SHRA FEW016CB SCT018 BKN200